Terminal Aerodrome Forecast
Issued by NWS Pocatello, ID

Home | Current Version | Previous Version | Text Only | Print | Product List | Glossary On
Versions: 1 2 3 4 5 6 7 8 9 10 11 12 13
000
FTUS45 KPIH 292132 AAA
TAFBYI
TAF AMD
KBYI 292132Z 2922/3018 28011KT P6SM VCTS BKN080CB
      TEMPO 2922/2924 VRB15G35KT -TSRA OVC080CB
     FM300400 23010G15KT P6SM SCT090=

USA.gov is the U.S. government's official web portal to all federal, state and local government web resources and services.